createdAt,value
2019-06-08T00:00:03.792Z,98287.22
2019-06-08T00:02:34.121Z,98282.20
2019-06-08T00:05:04.994Z,98290.91
2019-06-08T00:07:35.302Z,98299.64
2019-06-08T00:20:23.694Z,98292.55
2019-06-08T00:22:53.998Z,98288.11
2019-06-08T00:25:24.321Z,98303.00
2019-06-08T00:27:55.919Z,98296.92
2019-06-08T00:30:31.175Z,98321.09
2019-06-08T00:33:01.488Z,98325.50
2019-06-08T00:35:32.108Z,98316.90
2019-06-08T00:38:02.413Z,98314.39
2019-06-08T00:40:33.620Z,98315.67
2019-06-08T00:44:12.155Z,98329.28
2019-06-08T00:46:49.389Z,98339.21
2019-06-08T00:49:20.574Z,98343.66
2019-06-08T00:51:54.003Z,98334.11
2019-06-08T00:54:25.675Z,98326.28
2019-06-08T00:56:56.474Z,98317.67
2019-06-08T00:59:28.037Z,98325.34
2019-06-08T01:01:58.363Z,98322.97
2019-06-08T01:04:29.157Z,98340.94
2019-06-08T01:06:59.889Z,98344.25
2019-06-08T01:09:31.207Z,98334.02
2019-06-08T01:12:02.032Z,98336.09
2019-06-08T01:14:32.366Z,98336.15
2019-06-08T01:17:02.881Z,98349.35
2019-06-08T01:19:33.288Z,98368.94
2019-06-08T01:22:03.726Z,98375.14
2019-06-08T01:24:34.105Z,98386.97
2019-06-08T01:27:04.994Z,98384.13
2019-06-08T01:29:35.791Z,98393.33
2019-06-08T01:32:06.437Z,98395.11
2019-06-08T01:34:36.738Z,98403.75
2019-06-08T01:37:07.516Z,98410.92
2019-06-08T01:39:37.835Z,98421.10
2019-06-08T01:42:08.129Z,98422.50
2019-06-08T01:44:38.645Z,98413.64
2019-06-08T01:47:10.634Z,98404.27
2019-06-08T01:49:41.010Z,98415.00
2019-06-08T01:52:11.284Z,98413.09
2019-06-08T01:54:42.834Z,98403.64
2019-06-08T01:57:13.148Z,98399.13
2019-06-08T01:59:43.408Z,98396.25
2019-06-08T02:02:14.007Z,98401.16
2019-06-08T02:04:44.288Z,98405.67
2019-06-08T02:07:15.590Z,98414.41
2019-06-08T02:09:45.847Z,98423.14
2019-06-08T02:12:16.429Z,98426.48
2019-06-08T02:14:46.721Z,98435.91
2019-06-08T02:17:20.204Z,98431.49
2019-06-08T02:19:50.757Z,98423.09
2019-06-08T02:22:21.051Z,98422.88
2019-06-08T02:24:51.307Z,98415.80
2019-06-08T02:27:21.593Z,98407.58
2019-06-08T02:29:57.357Z,98409.83
2019-06-08T02:32:35.599Z,98417.11
2019-06-08T02:35:07.017Z,98428.94
2019-06-08T02:37:38.408Z,98420.77
2019-06-08T02:40:12.717Z,98429.11
2019-06-08T02:42:42.991Z,98435.09
2019-06-08T02:45:13.887Z,98436.23
2019-06-08T02:47:44.212Z,98431.66
2019-06-08T02:50:15.322Z,98435.23
2019-06-08T02:52:47.372Z,98428.14
2019-06-08T02:55:18.198Z,98430.42
2019-06-08T02:57:52.061Z,98449.84
2019-06-08T03:00:24.236Z,98462.64
2019-06-08T03:02:56.151Z,98450.86
2019-06-08T03:05:27.748Z,98445.61
2019-06-08T03:07:59.644Z,98448.83
2019-06-08T03:10:32.871Z,98445.23
2019-06-08T03:13:03.507Z,98458.08
2019-06-08T03:15:35.039Z,98452.81
2019-06-08T03:18:07.570Z,98466.72
2019-06-08T03:20:37.979Z,98481.30
2019-06-08T03:23:08.995Z,98479.88
2019-06-08T03:25:47.308Z,98491.02
2019-06-08T03:28:12.011Z,98494.50
2019-06-08T03:30:52.955Z,98500.75
2019-06-08T03:33:14.483Z,98507.91
2019-06-08T03:35:55.980Z,98503.50
2019-06-08T03:38:16.899Z,98505.17
2019-06-08T03:40:47.592Z,98504.79
2019-06-08T03:43:18.004Z,98502.92
2019-06-08T03:45:48.541Z,98518.05
2019-06-08T03:48:18.886Z,98525.79
2019-06-08T03:50:49.442Z,98535.55
2019-06-08T03:53:20.999Z,98529.50
2019-06-08T03:55:52.579Z,98534.84
2019-06-08T03:58:22.924Z,98530.91
2019-06-08T04:00:53.146Z,98542.47
2019-06-08T04:03:23.520Z,98540.09
2019-06-08T04:05:54.356Z,98537.20
2019-06-08T04:08:24.705Z,98535.13
2019-06-08T04:10:55.092Z,98537.41
2019-06-08T04:13:27.696Z,98545.87
2019-06-08T04:15:58.026Z,98552.19
2019-06-08T04:18:28.325Z,98555.25
2019-06-08T04:20:58.611Z,98565.09
2019-06-08T04:23:29.086Z,98571.23
2019-06-08T04:25:59.354Z,98574.54
2019-06-08T04:28:30.096Z,98559.48
2019-06-08T04:31:01.466Z,98552.97
2019-06-08T04:33:31.783Z,98558.14
2019-06-08T04:36:02.680Z,98564.89
2019-06-08T04:38:33.917Z,98576.72
2019-06-08T04:41:06.864Z,98579.67
2019-06-08T04:43:40.403Z,98580.78
2019-06-08T04:46:10.708Z,98576.16
2019-06-08T04:48:43.124Z,98579.05
2019-06-08T04:51:13.735Z,98579.87
2019-06-08T04:53:45.540Z,98585.81
2019-06-08T04:56:16.733Z,98585.27
2019-06-08T04:58:48.947Z,98606.19
2019-06-08T05:01:19.371Z,98604.42
2019-06-08T05:03:50.224Z,98610.14
2019-06-08T05:06:25.201Z,98611.41
2019-06-08T05:08:56.705Z,98616.25
2019-06-08T05:11:27.246Z,98619.72
2019-06-08T05:13:57.666Z,98637.17
2019-06-08T05:16:27.924Z,98639.89
2019-06-08T05:18:59.880Z,98645.55
2019-06-08T05:21:30.266Z,98642.47
2019-06-08T05:24:00.804Z,98648.25
2019-06-08T05:26:31.134Z,98657.04
2019-06-08T05:29:01.435Z,98662.59
2019-06-08T05:31:35.203Z,98659.02
2019-06-08T05:34:05.609Z,98664.77
2019-06-08T05:36:35.884Z,98678.78
2019-06-08T05:39:07.665Z,98678.06
2019-06-08T05:41:37.986Z,98678.95
2019-06-08T05:44:09.733Z,98678.98
2019-06-08T05:46:41.725Z,98680.92
2019-06-08T05:49:16.429Z,98682.55
2019-06-08T05:51:50.044Z,98685.41
2019-06-08T05:54:20.724Z,98683.41
2019-06-08T05:56:53.537Z,98677.28
2019-06-08T05:59:24.245Z,98683.06
2019-06-08T06:01:55.486Z,98684.51
2019-06-08T06:04:25.794Z,98688.02
2019-06-08T06:06:56.192Z,98690.66
2019-06-08T06:09:32.954Z,98697.53
2019-06-08T06:12:03.404Z,98696.52
2019-06-08T06:14:36.881Z,98697.55
2019-06-08T06:17:06.459Z,98698.42
2019-06-08T06:19:36.774Z,98702.48
2019-06-08T06:22:09.182Z,98705.91
2019-06-08T06:24:39.516Z,98698.91
2019-06-08T06:27:13.368Z,98697.03
2019-06-08T06:29:45.470Z,98697.75
2019-06-08T06:32:17.094Z,98700.10
2019-06-08T06:34:49.905Z,98703.45
2019-06-08T06:37:20.468Z,98703.02
2019-06-08T06:39:52.107Z,98709.23
2019-06-08T06:42:25.276Z,98700.54
2019-06-08T06:44:56.221Z,98710.27
2019-06-08T06:47:44.184Z,98713.87
2019-06-08T06:50:14.494Z,98719.48
2019-06-08T06:52:44.867Z,98729.53
2019-06-08T06:55:15.683Z,98731.05
2019-06-08T06:57:47.282Z,98732.23
2019-06-08T07:00:32.391Z,98732.98
2019-06-08T07:03:05.079Z,98732.85
2019-06-08T07:05:41.813Z,98727.70
2019-06-08T07:08:14.113Z,98713.07
2019-06-08T07:10:47.091Z,98730.63
2019-06-08T07:13:17.762Z,98731.11
2019-06-08T07:15:54.108Z,98726.72
2019-06-08T07:18:21.775Z,98728.56
2019-06-08T07:20:55.133Z,98734.25
2019-06-08T07:23:27.042Z,98732.95
2019-06-08T07:25:59.873Z,98745.57
2019-06-08T07:28:30.235Z,98731.17
2019-06-08T07:31:00.581Z,98740.98
2019-06-08T07:33:30.998Z,98740.77
2019-06-08T07:36:01.565Z,98740.44
2019-06-08T07:38:35.135Z,98735.77
2019-06-08T07:41:06.355Z,98734.45
2019-06-08T07:43:37.017Z,98733.67
2019-06-08T07:46:07.906Z,98746.88
2019-06-08T07:48:41.940Z,98735.69
2019-06-08T07:51:12.319Z,98741.92
2019-06-08T07:53:42.614Z,98740.58
2019-06-08T07:56:16.581Z,98738.44
2019-06-08T07:58:50.105Z,98750.45
2019-06-08T08:01:35.394Z,98752.86
2019-06-08T08:03:54.173Z,98749.20
2019-06-08T08:06:24.733Z,98754.33
2019-06-08T08:08:58.920Z,98747.21
2019-06-08T08:11:29.350Z,98756.34
2019-06-08T08:13:59.703Z,98752.91
2019-06-08T08:16:30.368Z,98751.36
2019-06-08T08:19:00.653Z,98755.58
2019-06-08T08:21:30.950Z,98752.43
2019-06-08T08:24:04.143Z,98749.09
2019-06-08T08:26:38.930Z,98750.98
2019-06-08T08:29:11.489Z,98764.05
2019-06-08T08:31:43.569Z,98756.25
2019-06-08T08:34:18.559Z,98770.83
2019-06-08T08:36:52.187Z,98770.05
2019-06-08T08:39:23.250Z,98775.72
2019-06-08T08:42:04.406Z,98770.20
2019-06-08T08:44:31.554Z,98782.07
2019-06-08T08:47:04.312Z,98781.78
2019-06-08T08:49:40.825Z,98784.34
2019-06-08T08:52:17.605Z,98785.54
2019-06-08T08:54:51.322Z,98784.56
2019-06-08T08:57:29.017Z,98788.64
2019-06-08T09:00:03.392Z,98785.52
2019-06-08T09:02:38.618Z,98783.09
2019-06-08T09:05:13.137Z,98794.44
2019-06-08T09:08:29.543Z,98790.95
2019-06-08T09:11:01.782Z,98788.39
2019-06-08T09:13:49.296Z,98800.36
2019-06-08T09:16:21.908Z,98808.55
2019-06-08T09:18:53.892Z,98795.40
2019-06-08T09:21:24.240Z,98800.21
2019-06-08T09:23:55.753Z,98800.73
2019-06-08T09:26:31.420Z,98811.64
2019-06-08T09:29:10.707Z,98811.47
2019-06-08T09:31:39.430Z,98810.41
2019-06-08T09:34:14.954Z,98819.00
2019-06-08T09:36:43.374Z,98816.31
2019-06-08T09:39:18.355Z,98805.25
2019-06-08T09:41:50.072Z,98825.84
2019-06-08T09:44:20.804Z,98825.95
2019-06-08T09:46:51.222Z,98828.09
2019-06-08T09:49:21.510Z,98838.81
2019-06-08T09:51:56.490Z,98831.51
2019-06-08T09:54:28.294Z,98831.92
2019-06-08T09:57:04.449Z,98831.78
2019-06-08T09:59:38.405Z,98831.05
2019-06-08T10:02:12.668Z,98837.61
2019-06-08T10:04:49.961Z,98836.27
2019-06-08T10:07:31.089Z,98834.45
2019-06-08T10:10:00.420Z,98846.33
2019-06-08T10:12:30.551Z,98832.04
2019-06-08T10:15:08.182Z,98834.56
2019-06-08T10:17:40.353Z,98835.23
2019-06-08T10:20:21.799Z,98836.45
2019-06-08T10:22:57.256Z,98838.09
2019-06-08T10:25:33.361Z,98835.64
2019-06-08T10:28:15.901Z,98839.11
2019-06-08T10:30:48.535Z,98828.94
2019-06-08T10:33:18.565Z,98826.17
2019-06-08T10:35:49.208Z,98818.97
2019-06-08T10:38:24.388Z,98818.75
2019-06-08T10:41:09.158Z,98815.85
2019-06-08T10:43:38.558Z,98809.80
2019-06-08T10:46:16.128Z,98813.27
2019-06-08T10:48:41.947Z,98809.63
2019-06-08T10:51:13.095Z,98811.16
2019-06-08T10:53:52.012Z,98808.38
2019-06-08T10:56:18.894Z,98805.64
2019-06-08T10:58:49.897Z,98805.47
2019-06-08T11:01:21.147Z,98799.33
2019-06-08T11:03:53.278Z,98807.08
2019-06-08T11:06:25.335Z,98805.86
2019-06-08T11:09:03.744Z,98804.91
2019-06-08T11:11:31.865Z,98799.27
2019-06-08T11:14:03.834Z,98794.34
2019-06-08T11:16:34.825Z,98799.45
2019-06-08T11:19:07.700Z,98804.10
2019-06-08T11:21:38.689Z,98811.15
2019-06-08T11:24:21.609Z,98808.70
2019-06-08T11:26:41.570Z,98796.95
2019-06-08T11:29:13.940Z,98801.87
2019-06-08T11:31:45.236Z,98816.69
2019-06-08T11:34:18.610Z,98804.78
2019-06-08T11:36:48.390Z,98802.19
2019-06-08T11:39:20.169Z,98806.19
2019-06-08T11:41:50.588Z,98801.75
2019-06-08T11:44:21.201Z,98800.91
2019-06-08T11:46:51.846Z,98794.41
2019-06-08T11:49:24.376Z,98802.36
2019-06-08T11:51:55.005Z,98800.80
2019-06-08T11:54:34.326Z,98798.70
2019-06-08T11:56:57.873Z,98801.27
2019-06-08T11:59:31.773Z,98816.03
2019-06-08T12:02:12.678Z,98809.34
2019-06-08T12:04:42.259Z,98808.28
2019-06-08T12:07:15.447Z,98799.63
2019-06-08T12:09:49.922Z,98802.97
2019-06-08T12:12:21.250Z,98798.87
2019-06-08T12:14:51.635Z,98803.82
2019-06-08T12:17:22.796Z,98811.80
2019-06-08T12:19:53.213Z,98811.72
2019-06-08T12:22:26.280Z,98800.69
2019-06-08T12:24:57.192Z,98796.14
2019-06-08T12:27:36.247Z,98801.03
2019-06-08T12:30:09.014Z,98797.05
2019-06-08T12:32:35.963Z,98798.22
2019-06-08T12:35:13.963Z,98798.05
2019-06-08T12:37:44.407Z,98802.06
2019-06-08T12:40:18.953Z,98802.25
2019-06-08T12:42:48.518Z,98803.00
2019-06-08T12:45:20.536Z,98802.06
2019-06-08T12:47:54.897Z,98799.81
2019-06-08T12:50:24.948Z,98794.19
2019-06-08T12:52:55.194Z,98791.09
2019-06-08T12:55:26.993Z,98794.86
2019-06-08T12:58:00.016Z,98791.98
2019-06-08T13:00:30.567Z,98790.78
2019-06-08T13:03:04.305Z,98801.52
2019-06-08T13:05:37.962Z,98796.64
2019-06-08T13:08:10.219Z,98795.08
2019-06-08T13:10:48.166Z,98797.88
2019-06-08T13:13:19.979Z,98800.70
2019-06-08T13:15:49.302Z,98815.84
2019-06-08T13:18:22.761Z,98818.28
2019-06-08T13:20:59.012Z,98817.87
2019-06-08T13:23:28.948Z,98815.78
2019-06-08T13:25:59.628Z,98811.42
2019-06-08T13:28:32.953Z,98819.15
2019-06-08T13:31:03.381Z,98814.67
2019-06-08T13:33:39.430Z,98823.74
2019-06-08T13:36:12.844Z,98821.79
2019-06-08T13:38:43.206Z,98822.08
2019-06-08T13:41:15.030Z,98810.59
2019-06-08T13:43:47.664Z,98811.35
2019-06-08T13:46:22.375Z,98823.92
2019-06-08T13:48:52.230Z,98820.73
2019-06-08T13:51:28.159Z,98814.08
2019-06-08T13:54:02.022Z,98803.94
2019-06-08T13:56:32.673Z,98818.05
2019-06-08T13:59:03.078Z,98809.88
2019-06-08T14:01:33.314Z,98806.72
2019-06-08T14:04:09.034Z,98811.07
2019-06-08T14:06:43.803Z,98812.36
2019-06-08T14:09:14.358Z,98809.56
2019-06-08T14:11:45.074Z,98802.92
2019-06-08T14:14:21.030Z,98803.45
2019-06-08T14:16:51.425Z,98802.72
2019-06-08T14:19:24.858Z,98806.02
2019-06-08T14:21:58.891Z,98796.14
2019-06-08T14:24:34.598Z,98802.12
2019-06-08T14:27:09.274Z,98792.44
2019-06-08T14:29:43.132Z,98799.19
2019-06-08T14:32:22.100Z,98792.61
2019-06-08T14:34:52.672Z,98799.92
2019-06-08T14:37:23.338Z,98795.91
2019-06-08T14:39:57.369Z,98792.62
2019-06-08T14:42:31.825Z,98791.51
2019-06-08T14:45:02.212Z,98795.75
2019-06-08T14:47:32.904Z,98798.69
2019-06-08T14:50:03.346Z,98801.58
2019-06-08T14:52:38.081Z,98796.34
2019-06-08T14:55:11.674Z,98796.83
2019-06-08T14:57:42.144Z,98799.02
2019-06-08T15:00:14.335Z,98784.55
2019-06-08T15:02:44.910Z,98790.33
2019-06-08T15:05:15.267Z,98790.69
2019-06-08T15:07:47.761Z,98788.05
2019-06-08T15:10:21.461Z,98787.17
2019-06-08T15:13:31.140Z,98789.08
2019-06-08T15:16:08.096Z,98799.40
2019-06-08T15:18:40.858Z,98795.00
2019-06-08T15:21:14.010Z,98790.61
2019-06-08T15:23:44.333Z,98786.47
2019-06-08T15:26:23.939Z,98790.39
2019-06-08T15:28:48.653Z,98787.54
2019-06-08T15:31:21.113Z,98784.58
2019-06-08T15:33:51.610Z,98783.47
2019-06-08T15:36:25.279Z,98780.41
2019-06-08T15:39:01.498Z,98772.98
2019-06-08T15:41:34.779Z,98771.83
2019-06-08T15:44:05.893Z,98755.77
2019-06-08T15:46:41.116Z,98752.82
2019-06-08T15:49:11.647Z,98752.77
2019-06-08T15:51:43.304Z,98740.34
2019-06-08T15:54:17.896Z,98745.02
2019-06-08T15:56:52.096Z,98735.83
2019-06-08T15:59:20.667Z,98745.08
2019-06-08T16:01:58.293Z,98737.86
2019-06-08T16:04:36.305Z,98740.25
2019-06-08T16:07:07.013Z,98739.25
2019-06-08T16:09:38.642Z,98738.91
2019-06-08T16:12:16.952Z,98738.75
2019-06-08T16:15:01.767Z,98734.09
2019-06-08T16:17:35.595Z,98736.10
2019-06-08T16:20:07.188Z,98734.45
2019-06-08T16:22:41.892Z,98736.46
2019-06-08T16:25:12.613Z,98736.59
2019-06-08T16:27:44.543Z,98739.55
2019-06-08T16:30:18.107Z,98732.53
2019-06-08T16:32:49.625Z,98733.47
2019-06-08T16:35:23.113Z,98732.02
2019-06-08T16:37:57.178Z,98731.34
2019-06-08T16:40:27.700Z,98739.20
2019-06-08T16:42:59.336Z,98740.23
2019-06-08T16:45:30.976Z,98741.63
2019-06-08T16:48:01.407Z,98742.78
2019-06-08T16:50:32.260Z,98744.12
2019-06-08T16:53:16.140Z,98741.08
2019-06-08T16:55:43.851Z,98747.05
2019-06-08T16:58:34.316Z,98749.29
2019-06-08T17:00:54.962Z,98743.95
2019-06-08T17:03:30.719Z,98741.81
2019-06-08T17:06:08.594Z,98737.55
2019-06-08T17:08:44.274Z,98741.47
2019-06-08T17:11:18.349Z,98746.62
2019-06-08T17:13:49.102Z,98751.05
2019-06-08T17:16:26.326Z,98751.20
2019-06-08T17:19:00.864Z,98748.04
2019-06-08T17:21:32.203Z,98751.25
2019-06-08T17:24:11.535Z,98748.88
2019-06-08T17:26:41.955Z,98748.63
2019-06-08T17:29:17.527Z,98744.88
2019-06-08T17:31:53.738Z,98746.91
2019-06-08T17:34:24.183Z,98744.32
2019-06-08T17:36:55.488Z,98747.35
2019-06-08T17:39:29.323Z,98739.79
2019-06-08T17:41:58.441Z,98741.88
2019-06-08T17:44:34.770Z,98743.23
2019-06-08T17:47:05.213Z,98739.25
2019-06-08T17:49:44.687Z,98744.47
2019-06-08T17:52:15.022Z,98740.90
2019-06-08T17:54:46.334Z,98746.22
2019-06-08T17:57:17.252Z,98739.77
2019-06-08T17:59:47.920Z,98744.05
2019-06-08T18:02:27.281Z,98744.72
2019-06-08T18:04:58.476Z,98747.29
2019-06-08T18:07:28.837Z,98749.44
2019-06-08T18:09:59.662Z,98750.45
2019-06-08T18:12:33.765Z,98748.92
2019-06-08T18:15:07.855Z,98754.77
2019-06-08T18:17:42.662Z,98760.28
2019-06-08T18:20:17.545Z,98760.28
2019-06-08T18:22:51.872Z,98764.22
2019-06-08T18:25:27.700Z,98762.12
2019-06-08T18:28:09.745Z,98756.95
2019-06-08T18:30:31.127Z,98754.00
2019-06-08T18:33:09.481Z,98753.43
2019-06-08T18:35:41.863Z,98760.05
2019-06-08T18:38:21.244Z,98763.48
2019-06-08T18:40:49.918Z,98756.34
2019-06-08T18:43:20.395Z,98761.23
2019-06-08T18:45:53.738Z,98765.88
2019-06-08T18:48:28.063Z,98763.77
2019-06-08T18:51:00.038Z,98763.63
2019-06-08T18:53:45.571Z,98765.70
2019-06-08T18:56:11.638Z,98771.12
2019-06-08T18:58:42.209Z,98777.08
2019-06-08T19:01:21.572Z,98776.48
2019-06-08T19:03:52.932Z,98777.17
2019-06-08T19:06:23.217Z,98777.92
2019-06-08T19:08:58.233Z,98777.05
2019-06-08T19:11:32.778Z,98783.78
2019-06-08T19:14:07.182Z,98789.56
2019-06-08T19:16:49.843Z,98790.72
2019-06-08T19:19:28.510Z,98790.92
2019-06-08T19:22:00.272Z,98800.36
2019-06-08T19:24:49.471Z,98805.33
2019-06-08T19:27:20.147Z,98803.61
2019-06-08T19:29:52.963Z,98800.39
2019-06-08T19:32:28.017Z,98802.00
2019-06-08T19:34:59.932Z,98807.44
2019-06-08T19:37:32.735Z,98809.38
2019-06-08T19:40:07.419Z,98814.30
2019-06-08T19:42:51.037Z,98812.39
2019-06-08T19:45:18.173Z,98817.66
2019-06-08T19:47:51.888Z,98814.17
2019-06-08T19:50:24.699Z,98817.05
2019-06-08T19:52:58.062Z,98822.23
2019-06-08T19:55:28.750Z,98823.04
2019-06-08T19:58:04.634Z,98819.87
2019-06-08T20:00:38.771Z,98824.16
2019-06-08T20:03:09.842Z,98827.41
2019-06-08T20:05:45.375Z,98828.94
2019-06-08T20:08:24.457Z,98837.91
2019-06-08T20:10:57.752Z,98845.64
2019-06-08T20:13:29.906Z,98843.23
2019-06-08T20:16:03.483Z,98850.17
2019-06-08T20:18:33.876Z,98851.11
2019-06-08T20:21:10.058Z,98851.62
2019-06-08T20:24:10.523Z,98850.08
2019-06-08T20:26:44.214Z,98847.78
2019-06-08T20:29:19.828Z,98855.15
2019-06-08T20:31:51.553Z,98851.80
2019-06-08T20:34:23.976Z,98855.59
2019-06-08T20:36:54.461Z,98856.02
2019-06-08T20:39:27.209Z,98853.97
2019-06-08T20:41:58.526Z,98851.33
2019-06-08T20:44:38.527Z,98858.30
2019-06-08T20:47:23.997Z,98858.72
2019-06-08T20:49:58.123Z,98855.40
2019-06-08T20:52:29.999Z,98852.50
2019-06-08T20:55:03.238Z,98858.86
2019-06-08T20:57:35.941Z,98861.09
2019-06-08T21:00:12.079Z,98866.45
2019-06-08T21:02:43.901Z,98863.94
2019-06-08T21:05:18.267Z,98866.98
2019-06-08T21:07:52.892Z,98870.12
2019-06-08T21:10:28.179Z,98864.56
2019-06-08T21:13:01.838Z,98874.06
2019-06-08T21:15:32.542Z,98870.75
2019-06-08T21:18:02.869Z,98868.78
2019-06-08T21:20:33.202Z,98859.77
2019-06-08T21:23:07.933Z,98863.14
2019-06-08T21:25:41.276Z,98867.60
2019-06-08T21:28:13.831Z,98872.47
2019-06-08T21:30:46.630Z,98869.97
2019-06-08T21:33:18.232Z,98869.32
2019-06-08T21:35:57.731Z,98874.70
2019-06-08T21:38:28.195Z,98870.67
2019-06-08T21:41:02.521Z,98873.31
2019-06-08T21:43:33.059Z,98883.95
2019-06-08T21:46:03.325Z,98884.06
2019-06-08T21:48:33.689Z,98881.81
2019-06-08T21:51:08.353Z,98882.95
2019-06-08T21:53:43.095Z,98888.95
2019-06-08T21:56:18.167Z,98894.30
2019-06-08T21:58:50.310Z,98888.00
2019-06-08T22:01:22.774Z,98895.14
2019-06-08T22:03:58.503Z,98904.70
2019-06-08T22:06:30.195Z,98900.30
2019-06-08T22:09:02.933Z,98901.72
2019-06-08T22:11:37.623Z,98902.09
2019-06-08T22:14:12.775Z,98902.92
2019-06-08T22:16:52.526Z,98901.33
2019-06-08T22:19:27.445Z,98905.35
2019-06-08T22:22:01.467Z,98904.50
2019-06-08T22:24:31.303Z,98905.69
2019-06-08T22:27:07.161Z,98899.59
2019-06-08T22:29:38.383Z,98904.91
2019-06-08T22:32:20.587Z,98904.55
2019-06-08T22:34:53.158Z,98908.11
2019-06-08T22:37:34.440Z,98905.63
2019-06-08T22:40:09.110Z,98904.31
2019-06-08T22:42:49.381Z,98903.73
2019-06-08T22:45:24.903Z,98911.11
2019-06-08T22:47:58.602Z,98913.63
2019-06-08T22:50:27.651Z,98911.34
2019-06-08T22:52:59.516Z,98906.34
2019-06-08T22:55:34.466Z,98908.17
2019-06-08T22:58:07.528Z,98900.67
2019-06-08T23:00:51.785Z,98904.78
2019-06-08T23:03:12.256Z,98892.98
2019-06-08T23:05:47.549Z,98894.45
2019-06-08T23:08:18.916Z,98894.94
2019-06-08T23:10:53.134Z,98899.20
2019-06-08T23:13:28.398Z,98893.80
2019-06-08T23:16:02.173Z,98896.92
2019-06-08T23:18:34.249Z,98901.58
2019-06-08T23:21:08.684Z,98902.89
2019-06-08T23:23:38.317Z,98898.11
2019-06-08T23:26:14.899Z,98904.95
2019-06-08T23:28:47.189Z,98896.57
2019-06-08T23:31:25.114Z,98887.99
2019-06-08T23:33:50.147Z,98887.18
2019-06-08T23:36:44.911Z,98889.97
2019-06-08T23:38:54.756Z,98902.91
2019-06-08T23:41:27.138Z,98902.91
2019-06-08T23:43:57.521Z,98901.40
2019-06-08T23:46:28.091Z,98899.72
2019-06-08T23:49:03.901Z,98897.06
2019-06-08T23:51:34.414Z,98899.61
2019-06-08T23:54:06.417Z,98897.64
2019-06-08T23:56:39.816Z,98897.55
2019-06-08T23:59:14.660Z,98893.00
